createdAt,value
2022-09-12T00:01:20.571Z,14.20
2022-09-12T00:03:49.467Z,14.20
2022-09-12T00:06:23.229Z,14.10
2022-09-12T00:08:51.644Z,14.10
2022-09-12T00:11:19.757Z,14.10
2022-09-12T00:13:47.860Z,14.10
2022-09-12T00:16:17.835Z,14.10
2022-09-12T00:18:47.347Z,14.10
2022-09-12T00:21:16.365Z,14.10
2022-09-12T00:23:45.880Z,14.10
2022-09-12T00:26:14.779Z,14.10
2022-09-12T00:28:43.264Z,14.10
2022-09-12T00:31:14.737Z,14.10
2022-09-12T00:33:43.042Z,14.00
2022-09-12T00:36:14.803Z,14.00
2022-09-12T00:38:44.856Z,14.00
2022-09-12T00:41:19.067Z,13.90
2022-09-12T00:43:48.958Z,13.90
2022-09-12T00:46:31.913Z,13.80
2022-09-12T00:49:04.110Z,13.80
2022-09-12T00:51:35.525Z,13.70
2022-09-12T00:54:09.373Z,13.80
2022-09-12T00:56:41.093Z,13.60
2022-09-12T00:59:14.265Z,13.60
2022-09-12T01:01:45.827Z,13.60
2022-09-12T01:04:14.799Z,13.70
2022-09-12T01:06:44.868Z,13.70
2022-09-12T01:09:17.088Z,13.70
2022-09-12T01:11:48.872Z,13.70
2022-09-12T01:14:18.903Z,13.60
2022-09-12T01:16:48.454Z,13.50
2022-09-12T01:19:37.074Z,13.50
2022-09-12T01:22:16.888Z,13.40
2022-09-12T01:24:55.748Z,13.40
2022-09-12T01:27:49.886Z,13.40
2022-09-12T01:30:31.620Z,13.30
2022-09-12T01:33:24.770Z,13.30
2022-09-12T01:36:04.467Z,13.30
2022-09-12T01:38:39.704Z,13.30
2022-09-12T01:41:14.062Z,13.30
2022-09-12T01:43:50.784Z,13.20
2022-09-12T01:46:24.544Z,13.10
2022-09-12T01:48:58.830Z,13.10
2022-09-12T01:51:32.206Z,13.10
2022-09-12T01:54:05.834Z,13.10
2022-09-12T01:56:36.902Z,13.00
2022-09-12T01:59:10.104Z,13.00
2022-09-12T02:01:45.679Z,13.00
2022-09-12T02:04:18.736Z,13.00
2022-09-12T02:06:51.267Z,12.90
2022-09-12T02:09:23.539Z,12.90
2022-09-12T02:11:54.553Z,12.80
2022-09-12T02:14:25.609Z,12.80
2022-09-12T02:16:59.915Z,12.80
2022-09-12T02:19:32.162Z,12.70
2022-09-12T02:22:02.593Z,12.70
2022-09-12T02:24:34.395Z,12.80
2022-09-12T02:27:07.732Z,12.70
2022-09-12T02:29:35.998Z,12.70
2022-09-12T02:32:11.070Z,12.60
2022-09-12T02:34:49.464Z,12.60
2022-09-12T02:37:26.284Z,12.60
2022-09-12T02:39:55.943Z,12.70
2022-09-12T02:42:24.481Z,12.60
2022-09-12T02:44:55.567Z,12.60
2022-09-12T02:47:30.994Z,12.60
2022-09-12T02:50:00.438Z,12.50
2022-09-12T02:52:30.090Z,12.50
2022-09-12T02:54:59.386Z,12.50
2022-09-12T02:57:27.697Z,12.50
2022-09-12T03:00:00.117Z,12.50
2022-09-12T03:02:44.859Z,12.50
2022-09-12T03:05:28.360Z,12.50
2022-09-12T03:08:21.492Z,12.40
2022-09-12T03:11:25.487Z,12.40
2022-09-12T03:14:05.993Z,12.40
2022-09-12T03:16:42.198Z,12.40
2022-09-12T03:19:25.043Z,12.40
2022-09-12T03:22:03.434Z,12.40
2022-09-12T03:24:35.117Z,12.40
2022-09-12T03:27:10.389Z,12.40
2022-09-12T03:29:41.468Z,12.30
2022-09-12T03:32:09.589Z,12.30
2022-09-12T03:34:39.134Z,12.30
2022-09-12T03:37:07.486Z,12.30
2022-09-12T03:39:35.669Z,12.20
2022-09-12T03:42:03.801Z,12.30
2022-09-12T03:44:32.012Z,12.20
2022-09-12T03:47:00.144Z,12.20
2022-09-12T03:49:28.312Z,12.20
2022-09-12T03:51:57.816Z,12.10
2022-09-12T03:54:26.109Z,12.10
2022-09-12T03:56:54.233Z,12.10
2022-09-12T03:59:22.329Z,12.10
2022-09-12T04:01:50.507Z,12.10
2022-09-12T04:04:18.608Z,12.10
2022-09-12T04:06:46.748Z,12.10
2022-09-12T04:09:16.320Z,12.10
2022-09-12T04:11:44.470Z,12.10
2022-09-12T04:14:12.617Z,12.00
2022-09-12T04:16:40.725Z,12.00
2022-09-12T04:19:09.235Z,12.00
2022-09-12T04:21:37.398Z,12.00
2022-09-12T04:24:05.759Z,12.00
2022-09-12T04:26:35.481Z,11.90
2022-09-12T04:29:03.619Z,12.00
2022-09-12T04:31:31.851Z,12.00
2022-09-12T04:34:02.344Z,12.00
2022-09-12T04:36:31.133Z,12.00
2022-09-12T04:39:00.365Z,11.90
2022-09-12T04:41:31.251Z,11.90
2022-09-12T04:44:03.221Z,11.80
2022-09-12T04:46:33.370Z,11.80
2022-09-12T04:49:01.594Z,11.80
2022-09-12T04:51:31.441Z,11.80
2022-09-12T04:54:02.371Z,11.80
2022-09-12T04:56:31.183Z,11.90
2022-09-12T04:59:02.243Z,11.90
2022-09-12T05:01:31.120Z,11.90
2022-09-12T05:04:00.458Z,11.90
2022-09-12T05:06:30.204Z,11.80
2022-09-12T05:08:59.734Z,11.80
2022-09-12T05:11:46.778Z,11.80
2022-09-12T05:14:19.554Z,11.80
2022-09-12T05:16:49.631Z,11.70
2022-09-12T05:19:18.317Z,11.70
2022-09-12T05:21:46.466Z,11.80
2022-09-12T05:24:14.650Z,11.80
2022-09-12T05:26:42.960Z,11.80
2022-09-12T05:29:13.210Z,11.80
2022-09-12T05:31:43.478Z,11.80
2022-09-12T05:34:12.794Z,11.80
2022-09-12T05:36:40.935Z,11.90
2022-09-12T05:39:09.079Z,11.80
2022-09-12T05:41:37.355Z,11.90
2022-09-12T05:44:07.280Z,12.00
2022-09-12T05:46:39.069Z,12.00
2022-09-12T05:49:10.069Z,12.20
2022-09-12T05:51:40.950Z,12.30
2022-09-12T05:54:11.852Z,12.30
2022-09-12T05:56:41.334Z,12.30
2022-09-12T05:59:14.071Z,12.40
2022-09-12T06:01:42.508Z,12.50
2022-09-12T06:04:12.380Z,12.60
2022-09-12T06:06:43.526Z,12.70
2022-09-12T06:09:12.084Z,12.80
2022-09-12T06:11:41.891Z,12.80
2022-09-12T06:14:11.307Z,13.00
2022-09-12T06:16:40.013Z,13.10
2022-09-12T06:19:13.505Z,13.20
2022-09-12T06:21:43.113Z,13.30
2022-09-12T06:24:11.406Z,13.40
2022-09-12T06:26:39.488Z,13.50
2022-09-12T06:29:07.819Z,13.70
2022-09-12T06:31:37.119Z,13.80
2022-09-12T06:34:07.956Z,13.90
2022-09-12T06:36:39.019Z,14.10
2022-09-12T06:39:11.714Z,14.30
2022-09-12T06:41:43.695Z,14.30
2022-09-12T06:44:14.976Z,14.40
2022-09-12T06:46:43.271Z,14.70
2022-09-12T06:49:11.833Z,14.80
2022-09-12T06:51:41.875Z,14.90
2022-09-12T06:54:14.611Z,15.00
2022-09-12T06:56:42.932Z,15.20
2022-09-12T06:59:11.449Z,15.30
2022-09-12T07:01:40.196Z,15.40
2022-09-12T07:04:08.568Z,15.50
2022-09-12T07:06:39.965Z,15.50
2022-09-12T07:09:10.948Z,15.50
2022-09-12T07:11:42.747Z,15.60
2022-09-12T07:14:14.145Z,15.70
2022-09-12T07:16:43.165Z,15.70
2022-09-12T07:19:12.139Z,15.80
2022-09-12T07:21:41.026Z,15.90
2022-09-12T07:24:10.877Z,16.00
2022-09-12T07:26:42.332Z,16.20
2022-09-12T07:29:35.852Z,16.30
2022-09-12T07:32:05.673Z,16.40
2022-09-12T07:34:33.969Z,16.60
2022-09-12T07:37:02.069Z,16.70
2022-09-12T07:39:30.220Z,16.70
2022-09-12T07:42:00.447Z,16.70
2022-09-12T07:44:29.469Z,16.80
2022-09-12T07:46:57.670Z,16.80
2022-09-12T07:49:25.984Z,16.80
2022-09-12T07:51:54.112Z,16.80
2022-09-12T07:54:22.420Z,16.90
2022-09-12T07:56:50.593Z,17.10
2022-09-12T07:59:41.560Z,17.30
2022-09-12T08:02:16.586Z,17.30
2022-09-12T08:04:45.456Z,17.40
2022-09-12T08:07:13.571Z,17.50
2022-09-12T08:09:41.790Z,17.60
2022-09-12T08:12:10.288Z,17.80
2022-09-12T08:14:39.867Z,17.90
2022-09-12T08:17:08.089Z,18.00
2022-09-12T08:19:36.197Z,18.20
2022-09-12T08:22:04.470Z,18.10
2022-09-12T08:24:33.662Z,18.10
2022-09-12T08:27:01.811Z,18.20
2022-09-12T08:29:30.006Z,18.30
2022-09-12T08:31:59.575Z,18.50
2022-09-12T08:34:27.791Z,18.70
2022-09-12T08:36:55.924Z,18.80
2022-09-12T08:39:24.682Z,18.80
2022-09-12T08:42:01.717Z,18.90
2022-09-12T08:44:55.326Z,18.90
2022-09-12T08:47:29.223Z,19.10
2022-09-12T08:50:05.162Z,19.20
2022-09-12T08:52:40.675Z,19.30
2022-09-12T08:55:24.498Z,19.30
2022-09-12T08:57:53.132Z,19.40
2022-09-12T09:00:22.964Z,19.30
2022-09-12T09:03:16.847Z,19.60
2022-09-12T09:05:52.433Z,19.90
2022-09-12T09:08:41.927Z,20.00
2022-09-12T09:11:22.100Z,19.80
2022-09-12T09:14:19.992Z,19.80
2022-09-12T09:16:53.269Z,19.80
2022-09-12T09:19:27.910Z,19.80
2022-09-12T09:22:00.193Z,20.00
2022-09-12T09:24:34.392Z,20.00
2022-09-12T09:27:14.267Z,20.00
2022-09-12T09:29:55.938Z,20.00
2022-09-12T09:32:28.768Z,20.20
2022-09-12T09:34:58.360Z,20.40
2022-09-12T09:37:36.003Z,20.30
2022-09-12T09:40:17.204Z,20.40
2022-09-12T09:42:54.220Z,20.60
2022-09-12T09:45:25.270Z,20.60
2022-09-12T09:47:58.425Z,20.50
2022-09-12T09:50:28.532Z,20.40
2022-09-12T09:52:59.014Z,20.50
2022-09-12T09:55:42.011Z,20.50
2022-09-12T09:58:10.151Z,20.50
2022-09-12T10:00:39.627Z,20.50
2022-09-12T10:03:27.406Z,20.70
2022-09-12T10:06:00.732Z,20.90
2022-09-12T10:08:31.169Z,21.00
2022-09-12T10:11:03.001Z,21.10
2022-09-12T10:13:37.969Z,21.40
2022-09-12T10:16:08.442Z,21.50
2022-09-12T10:18:42.839Z,21.70
2022-09-12T10:21:28.065Z,21.80
2022-09-12T10:24:05.864Z,21.80
2022-09-12T10:26:36.918Z,21.80
2022-09-12T10:29:12.601Z,21.80
2022-09-12T10:31:47.918Z,22.00
2022-09-12T10:34:27.989Z,22.10
2022-09-12T10:37:03.472Z,22.00
2022-09-12T10:39:32.821Z,22.10
2022-09-12T10:42:01.131Z,22.30
2022-09-12T10:44:31.052Z,22.20
2022-09-12T10:47:00.616Z,22.10
2022-09-12T10:49:31.288Z,22.00
2022-09-12T10:52:19.536Z,22.20
2022-09-12T10:54:47.813Z,22.30
2022-09-12T10:58:00.155Z,22.50
2022-09-12T11:00:30.397Z,22.50
2022-09-12T11:03:06.462Z,22.70
2022-09-12T11:05:52.806Z,22.80
2022-09-12T11:08:43.337Z,22.80
2022-09-12T11:11:30.665Z,23.00
2022-09-12T11:14:19.467Z,23.20
2022-09-12T11:16:56.210Z,23.30
2022-09-12T11:19:49.851Z,23.40
2022-09-12T11:22:33.657Z,23.50
2022-09-12T11:25:28.399Z,23.80
2022-09-12T11:28:09.181Z,23.80
2022-09-12T11:30:51.700Z,23.80
2022-09-12T11:33:43.097Z,23.70
2022-09-12T11:36:26.483Z,23.90
2022-09-12T11:39:10.110Z,24.10
2022-09-12T11:41:42.663Z,24.20
2022-09-12T11:44:18.705Z,24.40
2022-09-12T11:46:51.565Z,24.50
2022-09-12T11:49:35.435Z,24.60
2022-09-12T11:52:08.362Z,24.50
2022-09-12T11:54:42.908Z,24.60
2022-09-12T11:57:18.226Z,24.70
2022-09-12T11:59:53.575Z,24.70
2022-09-12T12:02:27.992Z,24.80
2022-09-12T12:05:18.855Z,24.90
2022-09-12T12:07:54.015Z,25.00
2022-09-12T12:10:35.132Z,25.00
2022-09-12T12:13:13.900Z,25.00
2022-09-12T12:15:48.653Z,25.00
2022-09-12T12:18:19.899Z,25.20
2022-09-12T12:20:48.487Z,24.90
2022-09-12T12:23:29.226Z,25.30
2022-09-12T12:25:59.261Z,25.70
2022-09-12T12:29:00.936Z,25.90
2022-09-12T12:31:29.130Z,25.90
2022-09-12T12:34:21.712Z,26.10
2022-09-12T12:36:50.234Z,25.80
2022-09-12T12:39:55.712Z,25.90
2022-09-12T12:42:57.393Z,26.20
2022-09-12T12:46:00.727Z,25.80
2022-09-12T12:48:36.515Z,25.80
2022-09-12T12:51:27.428Z,26.00
2022-09-12T12:53:56.451Z,26.50
2022-09-12T12:56:54.929Z,26.60
2022-09-12T12:59:24.858Z,26.80
2022-09-12T13:01:58.483Z,26.90
2022-09-12T13:04:29.440Z,27.10
2022-09-12T13:07:05.766Z,27.20
2022-09-12T13:09:39.499Z,27.00
2022-09-12T13:12:10.899Z,26.70
2022-09-12T13:14:55.022Z,26.90
2022-09-12T13:17:34.847Z,27.10
2022-09-12T13:20:34.618Z,27.60
2022-09-12T13:23:02.879Z,27.70
2022-09-12T13:25:33.164Z,27.10
2022-09-12T13:28:05.090Z,27.10
2022-09-12T13:30:36.227Z,27.70
2022-09-12T13:33:19.728Z,28.00
2022-09-12T13:36:17.633Z,28.00
2022-09-12T13:38:55.599Z,28.00
2022-09-12T13:41:45.971Z,28.60
2022-09-12T13:44:18.094Z,28.80
2022-09-12T13:46:46.454Z,28.70
2022-09-12T13:49:22.387Z,28.70
2022-09-12T13:52:00.662Z,28.50
2022-09-12T13:54:29.496Z,28.60
2022-09-12T13:56:58.083Z,28.70
2022-09-12T13:59:26.622Z,28.80
2022-09-12T14:01:54.844Z,28.80
2022-09-12T14:04:43.519Z,28.60
2022-09-12T14:07:15.038Z,28.30
2022-09-12T14:09:47.156Z,28.00
2022-09-12T14:12:22.218Z,28.00
2022-09-12T14:14:52.715Z,28.30
2022-09-12T14:17:27.567Z,28.30
2022-09-12T14:19:59.485Z,29.10
2022-09-12T14:22:29.895Z,29.00
2022-09-12T14:24:59.327Z,28.90
2022-09-12T14:27:30.455Z,28.80
2022-09-12T14:30:04.646Z,29.00
2022-09-12T14:32:32.802Z,29.00
2022-09-12T14:35:19.921Z,29.00
2022-09-12T14:37:51.233Z,28.80
2022-09-12T14:40:22.276Z,28.70
2022-09-12T14:42:52.691Z,28.80
2022-09-12T14:45:26.534Z,28.90
2022-09-12T14:47:55.098Z,28.90
2022-09-12T14:50:27.733Z,28.80
2022-09-12T14:53:07.246Z,28.90
2022-09-12T14:55:43.147Z,29.20
2022-09-12T14:58:26.277Z,29.00
2022-09-12T15:01:00.373Z,29.50
2022-09-12T15:03:31.881Z,29.70
2022-09-12T15:06:02.912Z,29.30
2022-09-12T15:08:31.975Z,29.50
2022-09-12T15:11:00.841Z,29.80
2022-09-12T15:13:30.832Z,29.80
2022-09-12T15:16:00.291Z,29.70
2022-09-12T15:18:30.051Z,29.40
2022-09-12T15:21:02.865Z,29.50
2022-09-12T15:23:35.876Z,29.50
2022-09-12T15:26:05.261Z,30.00
2022-09-12T15:28:36.629Z,29.80
2022-09-12T15:31:09.513Z,29.80
2022-09-12T15:33:37.625Z,30.00
2022-09-12T15:36:15.367Z,30.40
2022-09-12T15:38:43.580Z,30.70
2022-09-12T15:41:17.606Z,31.40
2022-09-12T15:43:45.985Z,31.60
2022-09-12T15:46:15.527Z,30.90
2022-09-12T15:48:43.899Z,30.20
2022-09-12T15:51:15.922Z,30.30
2022-09-12T15:53:44.568Z,30.70
2022-09-12T15:56:13.115Z,31.40
2022-09-12T15:58:57.231Z,32.60
2022-09-12T16:01:27.306Z,35.50
2022-09-12T16:03:55.488Z,38.60
2022-09-12T16:06:25.964Z,39.70
2022-09-12T16:08:54.107Z,40.40
2022-09-12T16:11:24.897Z,41.20
2022-09-12T16:13:53.842Z,37.70
2022-09-12T16:16:22.310Z,33.00
2022-09-12T16:18:50.695Z,30.50
2022-09-12T16:21:19.005Z,29.10
2022-09-12T16:23:49.138Z,28.30
2022-09-12T16:26:18.209Z,27.80
2022-09-12T16:28:46.814Z,27.40
2022-09-12T16:31:15.657Z,27.20
2022-09-12T16:33:43.936Z,27.10
2022-09-12T16:36:13.475Z,27.00
2022-09-12T16:38:45.798Z,26.80
2022-09-12T16:41:15.997Z,26.70
2022-09-12T16:43:45.503Z,26.50
2022-09-12T16:46:15.951Z,26.50
2022-09-12T16:48:50.892Z,26.30
2022-09-12T16:51:21.855Z,26.20
2022-09-12T16:53:50.832Z,26.10
2022-09-12T16:56:20.522Z,25.90
2022-09-12T16:58:52.794Z,25.60
2022-09-12T17:01:22.187Z,25.40
2022-09-12T17:03:54.425Z,25.10
2022-09-12T17:06:22.929Z,24.80
2022-09-12T17:09:07.770Z,24.60
2022-09-12T17:11:40.557Z,24.40
2022-09-12T17:14:14.584Z,24.30
2022-09-12T17:16:51.421Z,24.10
2022-09-12T17:19:22.174Z,23.90
2022-09-12T17:21:50.302Z,23.70
2022-09-12T17:24:19.309Z,23.60
2022-09-12T17:26:49.089Z,23.30
2022-09-12T17:29:17.755Z,23.10
2022-09-12T17:31:49.278Z,22.90
2022-09-12T17:34:21.111Z,22.80
2022-09-12T17:36:51.825Z,22.60
2022-09-12T17:39:21.546Z,22.40
2022-09-12T17:42:08.253Z,22.30
2022-09-12T17:44:39.729Z,22.20
2022-09-12T17:47:10.638Z,22.00
2022-09-12T17:49:41.446Z,21.80
2022-09-12T17:52:11.944Z,21.70
2022-09-12T17:54:42.734Z,21.50
2022-09-12T17:57:14.420Z,21.40
2022-09-12T17:59:42.786Z,21.30
2022-09-12T18:02:13.123Z,21.10
2022-09-12T18:04:45.908Z,21.00
2022-09-12T18:07:15.926Z,21.00
2022-09-12T18:09:43.998Z,20.80
2022-09-12T18:12:13.791Z,20.80
2022-09-12T18:14:42.606Z,20.80
2022-09-12T18:17:11.598Z,20.70
2022-09-12T18:19:40.009Z,20.50
2022-09-12T18:22:08.367Z,20.50
2022-09-12T18:24:36.898Z,20.40
2022-09-12T18:27:05.237Z,20.30
2022-09-12T18:29:34.708Z,20.40
2022-09-12T18:32:03.363Z,20.30
2022-09-12T18:34:31.489Z,20.20
2022-09-12T18:36:59.656Z,20.20
2022-09-12T18:39:28.148Z,20.10
2022-09-12T18:41:56.739Z,20.10
2022-09-12T18:44:24.915Z,20.00
2022-09-12T18:46:54.465Z,19.90
2022-09-12T18:49:22.584Z,19.80
2022-09-12T18:51:50.693Z,19.80
2022-09-12T18:54:19.160Z,19.70
2022-09-12T18:56:47.765Z,19.70
2022-09-12T18:59:16.198Z,19.60
2022-09-12T19:01:44.488Z,19.60
2022-09-12T19:04:16.365Z,19.50
2022-09-12T19:06:46.266Z,19.50
2022-09-12T19:09:16.281Z,19.50
2022-09-12T19:11:49.514Z,19.30
2022-09-12T19:14:18.557Z,19.30
2022-09-12T19:16:46.759Z,19.20
2022-09-12T19:19:16.347Z,19.20
2022-09-12T19:21:44.565Z,19.10
2022-09-12T19:24:14.378Z,19.00
2022-09-12T19:26:42.756Z,19.00
2022-09-12T19:29:14.162Z,18.90
2022-09-12T19:31:44.756Z,18.80
2022-09-12T19:34:16.271Z,18.80
2022-09-12T19:36:47.341Z,18.80
2022-09-12T19:39:17.814Z,18.80
2022-09-12T19:41:49.681Z,18.70
2022-09-12T19:44:19.268Z,18.60
2022-09-12T19:46:56.280Z,18.50
2022-09-12T19:49:27.085Z,18.40
2022-09-12T19:51:55.174Z,18.40
2022-09-12T19:54:27.212Z,18.30
2022-09-12T19:56:55.644Z,18.30
2022-09-12T19:59:28.492Z,18.30
2022-09-12T20:01:59.196Z,18.30
2022-09-12T20:04:35.163Z,18.20
2022-09-12T20:07:04.564Z,18.20
2022-09-12T20:09:36.052Z,18.10
2022-09-12T20:12:10.668Z,18.00
2022-09-12T20:14:40.669Z,17.90
2022-09-12T20:17:08.807Z,17.90
2022-09-12T20:19:38.282Z,17.90
2022-09-12T20:22:06.622Z,17.80
2022-09-12T20:24:35.973Z,17.80
2022-09-12T20:27:04.168Z,17.80
2022-09-12T20:29:32.278Z,17.80
2022-09-12T20:32:00.408Z,17.80
2022-09-12T20:34:28.562Z,17.80
2022-09-12T20:36:58.333Z,17.70
2022-09-12T20:39:26.659Z,17.70
2022-09-12T20:41:54.746Z,17.60
2022-09-12T20:44:22.869Z,17.50
2022-09-12T20:46:51.084Z,17.30
2022-09-12T20:49:19.246Z,17.20
2022-09-12T20:51:48.359Z,17.10
2022-09-12T20:54:18.139Z,17.00
2022-09-12T20:56:46.290Z,17.00
2022-09-12T20:59:14.391Z,16.90
2022-09-12T21:01:43.985Z,16.80
2022-09-12T21:04:15.138Z,16.80
2022-09-12T21:06:43.508Z,16.70
2022-09-12T21:09:11.655Z,16.70
2022-09-12T21:11:41.195Z,16.60
2022-09-12T21:14:09.334Z,16.60
2022-09-12T21:16:38.717Z,16.50
2022-09-12T21:19:08.026Z,16.50
2022-09-12T21:21:36.217Z,16.40
2022-09-12T21:24:04.609Z,16.40
2022-09-12T21:26:33.143Z,16.30
2022-09-12T21:29:02.833Z,16.30
2022-09-12T21:31:31.076Z,16.30
2022-09-12T21:33:59.217Z,16.20
2022-09-12T21:36:27.521Z,16.20
2022-09-12T21:38:59.149Z,16.20
2022-09-12T21:41:27.318Z,16.10
2022-09-12T21:43:55.572Z,16.10
2022-09-12T21:46:25.060Z,16.00
2022-09-12T21:48:53.179Z,16.10
2022-09-12T21:51:21.372Z,16.00
2022-09-12T21:53:50.732Z,16.00
2022-09-12T21:56:18.854Z,15.90
2022-09-12T21:58:47.289Z,15.90
2022-09-12T22:01:15.463Z,15.80
2022-09-12T22:03:45.041Z,15.80
2022-09-12T22:06:14.298Z,15.80
2022-09-12T22:08:42.486Z,15.70
2022-09-12T22:11:11.721Z,15.50
2022-09-12T22:13:42.876Z,15.50
2022-09-12T22:16:11.961Z,15.50
2022-09-12T22:18:40.514Z,15.40
2022-09-12T22:21:13.071Z,15.40
2022-09-12T22:23:58.978Z,15.40
2022-09-12T22:26:28.248Z,15.30
2022-09-12T22:28:56.408Z,15.30
2022-09-12T22:31:24.547Z,15.30
2022-09-12T22:33:52.687Z,15.30
2022-09-12T22:36:22.176Z,15.30
2022-09-12T22:38:50.967Z,15.30
2022-09-12T22:41:19.094Z,15.30
2022-09-12T22:43:47.251Z,15.20
2022-09-12T22:46:15.471Z,15.20
2022-09-12T22:48:43.813Z,15.10
2022-09-12T22:51:12.535Z,15.10
2022-09-12T22:53:42.050Z,15.10
2022-09-12T22:56:10.766Z,15.10
2022-09-12T22:58:38.922Z,15.10
2022-09-12T23:01:08.050Z,15.10
2022-09-12T23:03:36.461Z,15.00
2022-09-12T23:06:06.022Z,15.00
2022-09-12T23:08:36.238Z,14.90
2022-09-12T23:11:08.078Z,14.90
2022-09-12T23:13:36.363Z,14.90
2022-09-12T23:16:07.963Z,14.80
2022-09-12T23:18:37.008Z,14.80
2022-09-12T23:21:07.491Z,14.80
2022-09-12T23:23:36.737Z,14.80
2022-09-12T23:26:08.884Z,14.80
2022-09-12T23:28:37.940Z,14.80
2022-09-12T23:31:07.648Z,14.70
2022-09-12T23:33:36.255Z,14.60
2022-09-12T23:36:06.685Z,14.60
2022-09-12T23:38:36.454Z,14.70
2022-09-12T23:41:06.826Z,14.70
2022-09-12T23:43:35.264Z,14.70
2022-09-12T23:46:04.687Z,14.70
2022-09-12T23:48:33.693Z,14.70
2022-09-12T23:51:01.965Z,14.70
2022-09-12T23:53:31.056Z,14.70
2022-09-12T23:56:00.056Z,14.60
2022-09-12T23:58:31.004Z,14.60
